Aviosuperficie Moncucco

LIVV · Piedmont, Itália

História da METAR LIVV · Aviosuperficie Moncucco

Abaixo você vê METARs dos últimos dias. Selecione um ano para navegar pelos METARs mais antigos, a partir do ano 2007.

22 de fevereiro de 2024

Hora Código Clima Temp. Visibilidade Tecto Vento METAR/SPECI
12:20
I
10 °C 2,5 km 3.000 ft 020° 020° 3 kt METAR LIMF 221120Z 02003KT 350V090 2500 BR SCT015 OVC030 10/07 Q1012
11:50
I
10 °C 2,5 km 3.000 ft 080° 080° 3 kt METAR LIMF 221050Z 08003KT 040V140 2500 BR SCT015 OVC030 10/07 Q1012
11:20
I
10 °C 2 km 3.000 ft 090° 090° 4 kt METAR LIMF 221020Z 09004KT 070V130 2000 BR SCT015 OVC030 10/07 Q1012
10:50
I
10 °C 2 km 3.000 ft 040° 040° 4 kt METAR LIMF 220950Z 04004KT 010V080 2000 BR SCT015 OVC030 10/07 Q1012
10:20
I
9 °C 2 km 3.500 ft 050° 050° 3 kt METAR LIMF 220920Z 05003KT 020V080 2000 BR SCT020 OVC035 09/07 Q1013
09:50
I
9 °C 2 km 3.000 ft Var Var 1 kt METAR LIMF 220850Z VRB01KT 2000 BLSN OVC030 09/06 Q1013
09:20
I
8 °C 2 km 2.500 ft 360° 360° 0 kt METAR LIMF 220820Z 00000KT 2000 BR BKN025 OVC110 08/06 Q1013
08:50
I
7 °C 2 km 2.500 ft Var Var 1 kt METAR LIMF 220750Z VRB01KT 2000 BR BKN025 OVC100 07/06 Q1013
08:20
I
7 °C 2 km 2.000 ft Var Var 1 kt METAR LIMF 220720Z VRB01KT 2000 BR BKN020 OVC100 07/05 Q1013
07:50
I
6 °C 2,5 km 2.500 ft 130° 130° 3 kt METAR LIMF 220650Z 13003KT 110V180 2500 BR BKN025 OVC110 06/05 Q1014
07:20
I
8 °C 4 km - Var Var 1 kt METAR LIMF 220620Z VRB01KT 4000 BR SCT020 SCT110 08/05 Q1014
06:50
I
8 °C 4 km - 290° 290° 3 kt METAR LIMF 220550Z 29003KT 4000 BR SCT020 08/05 Q1014
06:20
I
8 °C 4 km - 320° 320° 4 kt METAR LIMF 220520Z 32004KT 4000 BR NSC 08/05 Q1014
05:20
I
7 °C 4 km - 310° 310° 3 kt METAR LIMF 220420Z 31003KT 4000 BR SCT020 SCT100 07/04 Q1015
04:50
I
8 °C 4 km 10.000 ft 290° 290° 3 kt METAR LIMF 220350Z 29003KT 4000 BR FEW020 BKN100 08/04 Q1015
04:20
I
8 °C 4 km 10.000 ft 280° 280° 2 kt METAR LIMF 220320Z 28002KT 4000 BR FEW020 BKN100 08/04 Q1016
03:50
I
8 °C 4 km 10.000 ft Var Var 1 kt METAR LIMF 220250Z VRB01KT 4000 BR BKN100 08/05 Q1016
03:20
I
7 °C 4 km 10.000 ft Var Var 2 kt METAR LIMF 220220Z VRB02KT 4000 BR BKN100 07/05 Q1016
02:50
I
8 °C 4 km 10.000 ft 350° 350° 4 kt METAR LIMF 220150Z 35004KT 330V030 4000 BR BKN100 08/05 Q1017
02:20
I
8 °C 4 km 10.000 ft 300° 300° 3 kt METAR LIMF 220120Z 30003KT 4000 BR BKN100 08/05 Q1017
01:50
I
8 °C 4 km 10.000 ft 310° 310° 2 kt METAR LIMF 220050Z 31002KT 4000 BR BKN100 08/05 Q1017
00:20
I
9 °C 4 km - 300° 300° 3 kt METAR LIMF 212320Z 30003KT 4000 BR FEW120 09/05 Q1018

21 de fevereiro de 2024

Hora Código Clima Temp. Visibilidade Tecto Vento METAR/SPECI
23:50
I
9 °C 4 km - 300° 300° 3 kt METAR LIMF 212250Z 30003KT 4000 BR NSC 09/05 Q1019
23:20
I
9 °C 4 km - 300° 300° 4 kt METAR LIMF 212220Z 30004KT 4000 BR NSC 09/05 Q1019
22:50
I
8 °C 4 km - 300° 300° 3 kt METAR LIMF 212150Z 30003KT 4000 BR NSC 08/05 Q1019
22:20
I
9 °C 4 km - 310° 310° 3 kt METAR LIMF 212120Z 31003KT 4000 BR NSC 09/06 Q1019
21:50
I
9 °C 4 km - 350° 350° 4 kt METAR LIMF 212050Z 35004KT 4000 BR NSC 09/06 Q1019
21:20
I
9 °C 4 km - 330° 330° 4 kt METAR LIMF 212020Z 33004KT 4000 BR NSC 09/06 Q1020
20:50
I
11 °C 4 km - 350° 350° 4 kt METAR LIMF 211950Z 35004KT 4000 BR NSC 11/06 Q1020
20:20
M
11 °C 5 km - 350° 350° 3 kt METAR LIMF 211920Z 35003KT 5000 BR NSC 11/06 Q1020
19:50
M
12 °C 5 km - 340° 340° 3 kt METAR LIMF 211850Z 34003KT 5000 BR NSC 12/06 Q1021
19:20
M
11 °C 5 km - 020° 020° 2 kt METAR LIMF 211820Z 02002KT 5000 BR NSC 11/07 Q1021
18:50
M
11 °C 5 km - 060° 060° 3 kt METAR LIMF 211750Z 06003KT 5000 BR NSC 11/06 Q1021
18:20
M
12 °C 5 km - 050° 050° 3 kt METAR LIMF 211720Z 05003KT 5000 BR NSC 12/07 Q1021
17:50
M
12 °C 6 km - 070° 070° 3 kt METAR LIMF 211650Z 07003KT 6000 NSC 12/06 Q1021
17:20
M
12 °C 6 km - 050° 050° 3 kt METAR LIMF 211620Z 05003KT 6000 NSC 12/07 Q1021
16:50
M
13 °C 6 km - 080° 080° 4 kt METAR LIMF 211550Z 08004KT 6000 NSC 13/06 Q1021
16:20
M
13 °C 6 km - 070° 070° 4 kt METAR LIMF 211520Z 07004KT 040V100 6000 NSC 13/06 Q1021
15:50
M
14 °C 6 km - 060° 060° 3 kt METAR LIMF 211450Z 06003KT 010V090 6000 NSC 14/06 Q1021
15:20
M
14 °C 6 km - 050° 050° 3 kt METAR LIMF 211420Z 05003KT 360V120 6000 NSC 14/06 Q1022
14:50
M
13 °C 6 km - 090° 090° 4 kt METAR LIMF 211350Z 09004KT 060V140 6000 NSC 13/06 Q1023
14:20
M
13 °C 6 km - 080° 080° 5 kt METAR LIMF 211320Z 08005KT 6000 NSC 13/05 Q1023
13:50
M
13 °C 6 km - 090° 090° 6 kt METAR LIMF 211250Z 09006KT 050V120 6000 NSC 13/05 Q1024
13:20
M
13 °C 6 km - 090° 090° 5 kt METAR LIMF 211220Z 09005KT 050V130 6000 NSC 13/05 Q1024
12:50
M
12 °C 6 km - 070° 070° 4 kt METAR LIMF 211150Z 07004KT 020V120 6000 NSC 12/06 Q1025
12:20
V
12 °C 10 km+ - 080° 080° 5 kt METAR LIMF 211120Z 08005KT 040V120 CAVOK 12/05 Q1025
11:50
V
12 °C 10 km+ - 090° 090° 5 kt METAR LIMF 211050Z 09005KT 040V120 CAVOK 12/04 Q1026
11:20
V
11 °C 10 km+ - 090° 090° 5 kt METAR LIMF 211020Z 09005KT 060V120 CAVOK 11/03 Q1026
10:50
V
11 °C 10 km+ - 120° 120° 4 kt METAR LIMF 210950Z 12004KT CAVOK 11/03 Q1025
10:20
V
11 °C 10 km+ - Var Var 2 kt METAR LIMF 210920Z VRB02KT CAVOK 11/01 Q1026
09:50
V
11 °C 10 km+ - Var Var 1 kt METAR LIMF 210850Z VRB01KT CAVOK 11/M00 Q1026
09:20
V
9 °C 10 km+ - 300° 300° 2 kt METAR LIMF 210820Z 30002KT CAVOK 09/00 Q1026
08:50
V
7 °C 10 km+ - 330° 330° 2 kt METAR LIMF 210750Z 33002KT CAVOK 07/02 Q1026
08:20
V
5 °C 10 km+ - 320° 320° 3 kt METAR LIMF 210720Z 32003KT CAVOK 05/00 Q1025
07:50
V
5 °C 10 km+ - 310° 310° 2 kt METAR LIMF 210650Z 31002KT CAVOK 05/M01 Q1025
07:20
V
5 °C 10 km+ - 290° 290° 3 kt METAR LIMF 210620Z 29003KT CAVOK 05/M00 Q1025
06:50
V
6 °C 10 km+ - 320° 320° 2 kt METAR LIMF 210550Z 32002KT CAVOK 06/M00 Q1025
06:20
V
5 °C 10 km+ - Var Var 1 kt METAR LIMF 210520Z VRB01KT CAVOK 05/M01 Q1025
05:50
V
5 °C 10 km+ - 070° 070° 2 kt METAR LIMF 210450Z 07002KT CAVOK 05/M01 Q1025
05:20
V
5 °C 10 km+ - 070° 070° 2 kt METAR LIMF 210420Z 07002KT CAVOK 05/M00 Q1024
04:50
V
5 °C 10 km+ - 310° 310° 3 kt METAR LIMF 210350Z 31003KT CAVOK 05/M01 Q1024
04:20
V
6 °C 10 km+ - 300° 300° 4 kt METAR LIMF 210320Z 30004KT CAVOK 06/M01 Q1024
03:50
V
7 °C 10 km+ - 290° 290° 4 kt METAR LIMF 210250Z 29004KT CAVOK 07/M00 Q1025
03:20
V
7 °C 10 km+ - 310° 310° 4 kt METAR LIMF 210220Z 31004KT CAVOK 07/00 Q1025
02:50
V
6 °C 10 km+ - 270° 270° 3 kt METAR LIMF 210150Z 27003KT CAVOK 06/M00 Q1025
02:20
V
6 °C 10 km+ - 320° 320° 3 kt METAR LIMF 210120Z 32003KT CAVOK 06/01 Q1025
01:50
V
6 °C 10 km+ - Var Var 2 kt METAR LIMF 210050Z VRB02KT CAVOK 06/00 Q1025
01:20
V
7 °C 10 km+ - Var Var 2 kt METAR LIMF 210020Z VRB02KT CAVOK 07/01 Q1025
00:50
V
8 °C 10 km+ - Var Var 1 kt METAR LIMF 202350Z VRB01KT CAVOK 08/01 Q1025
00:20
V
7 °C 10 km+ - Var Var 1 kt METAR LIMF 202320Z VRB01KT CAVOK 07/01 Q1025

20 de fevereiro de 2024

Hora Código Clima Temp. Visibilidade Tecto Vento METAR/SPECI
23:50
V
7 °C 10 km+ - Var Var 1 kt METAR LIMF 202250Z VRB01KT CAVOK 07/01 Q1025
23:20
V
8 °C 10 km+ - 280° 280° 3 kt METAR LIMF 202220Z 28003KT CAVOK 08/01 Q1025
22:50
V
8 °C 10 km+ - 200° 200° 4 kt METAR LIMF 202150Z 20004KT 150V230 CAVOK 08/02 Q1025
22:20
V
9 °C 10 km+ - 190° 190° 3 kt METAR LIMF 202120Z 19003KT 150V220 CAVOK 09/02 Q1025
21:50
V
11 °C 10 km+ - 310° 310° 7 kt METAR LIMF 202050Z 31007KT CAVOK 11/01 Q1025
21:20
V
11 °C 10 km+ - 300° 300° 7 kt METAR LIMF 202020Z 30007KT CAVOK 11/01 Q1025
20:50
V
11 °C 10 km+ - 300° 300° 8 kt METAR LIMF 201950Z 30008KT CAVOK 11/02 Q1025
20:20
V
11 °C 10 km+ - 290° 290° 6 kt METAR LIMF 201920Z 29006KT CAVOK 11/02 Q1025
19:50
V
11 °C 10 km+ - 300° 300° 5 kt METAR LIMF 201850Z 30005KT CAVOK 11/03 Q1025
19:20
V
12 °C 10 km+ - 360° 360° 2 kt METAR LIMF 201820Z 36002KT CAVOK 12/02 Q1024
18:50
V
14 °C 10 km+ - 270° 270° 4 kt METAR LIMF 201750Z 27004KT CAVOK 14/02 Q1024
18:20
V
15 °C 10 km+ - 270° 270° 5 kt METAR LIMF 201720Z 27005KT CAVOK 15/01 Q1024
17:50
V
15 °C 10 km+ - 250° 250° 4 kt METAR LIMF 201650Z 25004KT CAVOK 15/02 Q1024
17:20
V
16 °C 10 km+ - 220° 220° 5 kt METAR LIMF 201620Z 22005KT CAVOK 16/02 Q1023
16:50
V
16 °C 10 km+ - 230° 230° 5 kt METAR LIMF 201550Z 23005KT CAVOK 16/02 Q1023
16:20
V
17 °C 10 km+ - 240° 240° 4 kt METAR LIMF 201520Z 24004KT CAVOK 17/M00 Q1023
15:50
V
18 °C 10 km+ - 210° 210° 5 kt METAR LIMF 201450Z 21005KT 180V250 CAVOK 18/M01 Q1024
15:20
V
17 °C 10 km+ - 200° 200° 5 kt METAR LIMF 201420Z 20005KT CAVOK 17/M01 Q1024
14:50
M
17 °C 7 km - 180° 180° 4 kt METAR LIMF 201350Z 18004KT 140V240 7000 NSC 17/02 Q1024
14:20
M
17 °C 7 km - 190° 190° 4 kt METAR LIMF 201320Z 19004KT 140V250 7000 NSC 17/03 Q1024
13:50
M
17 °C 6 km - 190° 190° 4 kt METAR LIMF 201250Z 19004KT 150V210 6000 NSC 17/03 Q1024
13:20
M
17 °C 6 km - 140° 140° 4 kt METAR LIMF 201220Z 14004KT 100V180 6000 NSC 17/03 Q1025
12:50
M
16 °C 6 km - 150° 150° 3 kt METAR LIMF 201150Z 15003KT 080V200 6000 NSC 16/04 Q1025
12:20
M
15 °C 6 km - 130° 130° 3 kt METAR LIMF 201120Z 13003KT 080V230 6000 NSC 15/04 Q1025
11:50
M
15 °C 6 km - 160° 160° 3 kt METAR LIMF 201050Z 16003KT 110V250 6000 NSC 15/04 Q1025
11:20
M
15 °C 6 km - 140° 140° 3 kt METAR LIMF 201020Z 14003KT 070V230 6000 NSC 15/04 Q1025
10:50
M
14 °C 6 km - Var Var 2 kt METAR LIMF 200950Z VRB02KT 6000 NSC 14/04 Q1025
10:20
M
13 °C 6 km - Var Var 2 kt METAR LIMF 200920Z VRB02KT 6000 NSC 13/04 Q1025
09:50
M
11 °C 6 km - Var Var 2 kt METAR LIMF 200850Z VRB02KT 6000 NSC 11/04 Q1025
09:20
M
11 °C 6 km - 270° 270° 2 kt METAR LIMF 200820Z 27002KT 6000 NSC 11/03 Q1025
08:50
M
9 °C 7 km - 290° 290° 3 kt METAR LIMF 200750Z 29003KT 7000 NSC 09/02 Q1025
08:20
M
7 °C 7 km - 300° 300° 4 kt METAR LIMF 200720Z 30004KT 7000 NSC 07/02 Q1024
07:50
V
5 °C 10 km+ - 300° 300° 4 kt METAR LIMF 200650Z 30004KT 270V330 CAVOK 05/01 Q1024
07:20
V
5 °C 10 km+ - 290° 290° 5 kt METAR LIMF 200620Z 29005KT CAVOK 05/00 Q1024
06:50
V
6 °C 10 km+ - 310° 310° 3 kt METAR LIMF 200550Z 31003KT CAVOK 06/00 Q1024